Time;durP1;ratioP1;P1;durP2;ratioP2;P2;SDS_P1;SDS_P2;PMS_P1;PMS_P2;Temp;Humidity;BMP_temperature;BMP_pressure;BME280_temperature;BME280_humidity;BME280_pressure;Samples;Min_cycle;Max_cycle;Signal;HPM_P1;HPM_P2
2023/01/31 00:01:24;;;;;;;0.82;0.82;;;3.30;99.90;;;;;;4897694;29;20035;-69
2023/01/31 00:03:58;;;;;;;1.08;0.68;;;3.20;99.90;;;;;;4892365;29;20059;-68
2023/01/31 00:06:28;;;;;;;1.23;1.00;;;3.20;99.90;;;;;;4898680;29;20032;-69
2023/01/31 00:08:54;;;;;;;0.82;0.70;;;3.30;99.90;;;;;;4897217;29;20382;-68
2023/01/31 00:11:23;;;;;;;1.25;0.93;;;3.40;99.90;;;;;;4902077;29;20074;-69
2023/01/31 00:13:49;;;;;;;0.65;0.65;;;3.40;99.90;;;;;;4900229;29;20036;-68
2023/01/31 00:16:16;;;;;;;1.05;0.82;;;3.40;99.90;;;;;;4896014;29;20059;-69
2023/01/31 00:18:42;;;;;;;1.42;0.80;;;3.50;99.90;;;;;;4894436;29;20041;-69
2023/01/31 00:21:11;;;;;;;1.38;0.77;;;3.50;99.90;;;;;;4900006;29;20032;-69
2023/01/31 00:23:38;;;;;;;1.85;0.90;;;3.40;99.90;;;;;;4893951;29;20052;-70
2023/01/31 00:26:17;;;;;;;1.92;0.75;;;3.40;99.90;;;;;;4883553;29;20108;-68
2023/01/31 00:28:44;;;;;;;1.60;0.80;;;3.40;99.90;;;;;;4880481;29;20043;-68
2023/01/31 00:31:11;;;;;;;1.17;0.82;;;3.40;99.90;;;;;;4894244;29;20059;-67
2023/01/31 00:33:38;;;;;;;1.63;0.90;;;3.60;99.90;;;;;;4874018;29;20052;-67
2023/01/31 00:36:06;;;;;;;1.75;0.88;;;3.60;99.90;;;;;;4893923;29;20100;-68
2023/01/31 00:38:33;;;;;;;1.70;1.08;;;3.70;99.90;;;;;;4903800;29;20044;-68
2023/01/31 00:40:58;;;;;;;4.55;1.33;;;3.70;99.90;;;;;;4901081;29;20037;-68
2023/01/31 00:43:24;;;;;;;2.92;0.98;;;3.80;99.90;;;;;;4893589;29;20584;-68
2023/01/31 00:45:50;;;;;;;2.70;1.20;;;3.70;99.90;;;;;;4898167;29;20784;-74
2023/01/31 00:48:15;;;;;;;2.92;1.13;;;3.80;99.90;;;;;;4897170;29;20556;-76
2023/01/31 00:50:41;;;;;;;2.90;1.38;;;3.80;99.90;;;;;;4901140;29;20067;-71
2023/01/31 00:53:07;;;;;;;2.58;1.15;;;3.90;99.90;;;;;;4898417;29;20024;-74
2023/01/31 00:55:32;;;;;;;1.98;1.30;;;3.90;99.90;;;;;;4896581;29;20155;-74
2023/01/31 00:57:58;;;;;;;2.70;0.98;;;3.90;99.90;;;;;;4898029;29;20084;-74
2023/01/31 01:00:24;;;;;;;2.20;1.10;;;3.90;99.90;;;;;;4891458;29;20040;-75
2023/01/31 01:02:49;;;;;;;1.63;1.08;;;4.00;99.90;;;;;;4898514;29;20474;-65
2023/01/31 01:05:15;;;;;;;4.60;3.20;;;3.90;99.90;;;;;;4902700;29;20051;-70
2023/01/31 01:07:41;;;;;;;2.67;1.10;;;3.80;99.90;;;;;;4900340;29;20070;-64
2023/01/31 01:10:07;;;;;;;4.28;1.15;;;3.70;99.90;;;;;;4902006;29;20047;-67
2023/01/31 01:12:33;;;;;;;3.03;1.17;;;3.80;99.90;;;;;;4895790;29;20040;-67
2023/01/31 01:14:59;;;;;;;2.78;1.48;;;3.70;99.90;;;;;;4887999;29;20486;-75
2023/01/31 01:17:24;;;;;;;1.88;0.80;;;3.70;99.90;;;;;;4888190;29;20040;-74
2023/01/31 01:19:50;;;;;;;5.45;1.30;;;3.70;99.90;;;;;;4908571;28;20048;-73
2023/01/31 01:22:16;;;;;;;2.00;0.98;;;3.70;99.90;;;;;;4891021;29;20454;-77
2023/01/31 01:24:43;;;;;;;2.38;1.00;;;3.80;99.90;;;;;;4884251;29;20059;-75
2023/01/31 01:27:09;;;;;;;3.40;1.00;;;3.80;99.90;;;;;;4890347;29;20033;-67
2023/01/31 01:29:35;;;;;;;2.78;1.05;;;3.80;99.90;;;;;;4885098;29;20036;-68
2023/01/31 01:32:01;;;;;;;2.38;1.30;;;3.70;99.90;;;;;;4875673;29;20631;-67
2023/01/31 01:34:27;;;;;;;3.00;0.90;;;3.80;99.90;;;;;;4882819;29;20058;-70
2023/01/31 01:36:53;;;;;;;2.40;1.25;;;3.80;99.90;;;;;;4891841;29;20040;-69
2023/01/31 01:39:19;;;;;;;2.90;1.05;;;3.80;99.90;;;;;;4879633;29;20036;-69
2023/01/31 01:41:45;;;;;;;4.90;1.00;;;3.90;99.90;;;;;;4888390;29;20406;-67
2023/01/31 01:44:42;;;;;;;5.30;1.25;;;3.80;99.90;;;;;;4879618;29;20079;-68
2023/01/31 01:47:28;;;;;;;3.15;1.40;;;3.80;99.90;;;;;;4888964;29;20115;-68
2023/01/31 01:50:07;;;;;;;3.10;1.10;;;3.90;99.90;;;;;;4896619;29;20040;-67
2023/01/31 01:53:06;;;;;;;2.47;1.30;;;3.90;99.90;;;;;;4891463;29;20048;-67
2023/01/31 01:55:40;;;;;;;3.30;0.95;;;4.00;99.90;;;;;;4885719;29;20040;-67
2023/01/31 01:58:19;;;;;;;4.63;1.42;;;4.00;99.90;;;;;;4889335;29;20048;-68
2023/01/31 02:00:47;;;;;;;3.00;0.95;;;4.00;99.90;;;;;;4889197;29;20501;-68
2023/01/31 02:03:13;;;;;;;2.58;1.00;;;3.90;99.90;;;;;;4892258;29;20115;-67
2023/01/31 02:05:50;;;;;;;1.30;1.20;;;4.00;99.90;;;;;;4873834;29;20049;-67
2023/01/31 02:08:20;;;;;;;5.32;1.00;;;4.00;99.90;;;;;;4875302;29;20085;-67
2023/01/31 02:10:55;;;;;;;3.20;0.80;;;3.90;99.90;;;;;;4883426;29;20127;-66
2023/01/31 02:13:21;;;;;;;2.15;0.68;;;3.90;99.90;;;;;;4876543;29;20502;-66
2023/01/31 02:15:47;;;;;;;2.95;0.80;;;3.90;99.90;;;;;;4892303;29;20092;-66
2023/01/31 02:18:14;;;;;;;2.60;0.60;;;3.90;99.90;;;;;;4891302;29;20273;-66
2023/01/31 02:21:10;;;;;;;2.67;0.73;;;3.80;99.90;;;;;;4892902;29;20025;-67
2023/01/31 02:24:13;;;;;;;2.17;0.70;;;3.80;99.90;;;;;;4892834;29;20084;-66
2023/01/31 02:26:51;;;;;;;1.67;0.80;;;3.90;99.90;;;;;;4890979;29;20192;-66
2023/01/31 02:29:32;;;;;;;4.30;0.85;;;3.90;99.90;;;;;;4889947;29;20063;-66
2023/01/31 02:32:35;;;;;;;1.27;0.70;;;3.90;99.90;;;;;;4890932;29;20040;-66
2023/01/31 02:35:24;;;;;;;3.15;0.90;;;3.90;99.90;;;;;;4904023;29;20162;-67
2023/01/31 02:38:25;;;;;;;1.08;0.80;;;3.90;99.90;;;;;;4874261;29;20084;-67
2023/01/31 02:41:14;;;;;;;4.80;1.02;;;3.90;99.90;;;;;;4893101;29;20044;-71
2023/01/31 02:47:18;;;;;;;2.97;0.90;;;4.00;99.90;;;;;;4892960;29;20481;-70
2023/01/31 02:49:59;;;;;;;3.05;0.88;;;4.10;99.90;;;;;;4887353;29;20088;-71
2023/01/31 02:52:54;;;;;;;2.92;0.70;;;4.10;99.90;;;;;;4900132;29;20085;-72
2023/01/31 02:58:16;;;;;;;7.22;0.90;;;4.10;99.90;;;;;;4898479;29;20082;-72
2023/01/31 03:00:44;;;;;;;3.63;0.82;;;4.10;99.90;;;;;;4886713;29;20045;-66
2023/01/31 03:03:23;;;;;;;3.60;0.80;;;4.10;99.90;;;;;;4898747;29;20111;-66
2023/01/31 03:06:24;;;;;;;7.00;1.08;;;4.10;99.90;;;;;;4900609;29;20048;-66
2023/01/31 03:09:06;;;;;;;11.30;1.63;;;4.10;99.90;;;;;;4898727;29;20103;-66
2023/01/31 03:11:48;;;;;;;4.95;1.05;;;4.10;99.90;;;;;;4895074;29;20524;-66
2023/01/31 03:14:26;;;;;;;;;;;4.10;99.90;;;;;;4898340;29;20140;-66
2023/01/31 03:17:31;;;;;;;3.72;0.75;;;4.10;99.90;;;;;;4893116;29;19994;-66
2023/01/31 03:20:28;;;;;;;4.60;1.27;;;4.20;99.90;;;;;;4890808;29;20789;-66
2023/01/31 03:23:02;;;;;;;2.78;1.13;;;4.10;99.90;;;;;;4901554;29;20075;-66
2023/01/31 03:25:33;;;;;;;3.55;0.90;;;4.20;99.90;;;;;;4893948;29;20122;-66
2023/01/31 03:28:05;;;;;;;4.13;1.50;;;4.20;99.90;;;;;;4898621;29;20039;-65
2023/01/31 03:30:56;;;;;;;6.07;1.35;;;4.20;99.90;;;;;;4897500;29;20076;-66
2023/01/31 03:33:26;;;;;;;7.00;1.80;;;4.10;99.90;;;;;;4899150;29;20093;-65
2023/01/31 03:36:09;;;;;;;6.38;1.27;;;4.20;99.90;;;;;;4896258;29;20028;-66
2023/01/31 03:38:51;;;;;;;4.10;1.35;;;4.10;99.90;;;;;;4892403;29;20489;-72
2023/01/31 03:41:34;;;;;;;3.45;1.25;;;4.20;99.90;;;;;;4893436;29;20206;-71
2023/01/31 03:44:11;;;;;;;4.35;2.70;;;4.20;99.90;;;;;;4898228;29;20160;-71
2023/01/31 03:46:41;;;;;;;3.90;0.68;;;4.20;99.90;;;;;;4895969;29;20040;-71
2023/01/31 03:49:10;;;;;;;4.93;2.08;;;4.20;99.90;;;;;;4898821;29;20124;-74
2023/01/31 03:51:44;;;;;;;23.95;13.02;;;4.20;99.90;;;;;;4872304;29;20042;-72
2023/01/31 03:54:18;;;;;;;9.68;5.20;;;4.20;99.90;;;;;;4892744;29;20067;-71
2023/01/31 03:56:57;;;;;;;6.70;3.80;;;4.20;99.90;;;;;;4903035;29;20033;-72
2023/01/31 03:59:29;;;;;;;3.67;1.25;;;4.20;99.90;;;;;;4898501;29;20164;-73
2023/01/31 04:01:59;;;;;;;3.30;1.25;;;4.30;99.90;;;;;;4896428;29;20055;-72
2023/01/31 04:04:33;;;;;;;4.85;1.13;;;4.20;99.90;;;;;;4896210;29;20130;-72
2023/01/31 04:07:00;;;;;;;4.57;1.42;;;4.20;99.90;;;;;;4902389;29;20036;-73
2023/01/31 04:09:26;;;;;;;1.27;0.88;;;4.30;99.90;;;;;;4896877;29;20181;-73
2023/01/31 04:11:51;;;;;;;4.22;1.15;;;4.20;99.90;;;;;;4898950;29;20039;-72
2023/01/31 04:14:17;;;;;;;2.80;0.93;;;4.10;99.90;;;;;;4902750;29;20112;-74
2023/01/31 04:16:43;;;;;;;3.83;1.05;;;4.10;99.90;;;;;;4900693;29;20041;-66
2023/01/31 04:19:09;;;;;;;2.83;1.08;;;4.10;99.90;;;;;;4898097;29;20409;-66
2023/01/31 04:21:34;;;;;;;3.97;1.17;;;4.00;99.90;;;;;;4893944;29;20048;-66
2023/01/31 04:24:00;;;;;;;4.03;0.93;;;4.00;99.90;;;;;;4897152;29;20238;-66
2023/01/31 04:26:25;;;;;;;5.22;1.38;;;4.00;99.90;;;;;;4895966;29;20036;-66
2023/01/31 04:28:51;;;;;;;7.60;3.38;;;4.00;99.90;;;;;;4883330;29;20130;-64
2023/01/31 04:31:17;;;;;;;3.20;1.00;;;4.00;99.90;;;;;;4892381;29;20036;-66
2023/01/31 04:33:43;;;;;;;2.97;1.20;;;4.00;99.90;;;;;;4892446;29;20036;-65
2023/01/31 04:36:09;;;;;;;2.45;0.93;;;3.90;99.90;;;;;;4898507;29;20497;-66
2023/01/31 04:38:35;;;;;;;3.05;1.20;;;3.90;99.90;;;;;;4894664;29;20092;-65
2023/01/31 04:41:00;;;;;;;5.03;0.82;;;3.80;99.90;;;;;;4899214;29;20479;-65
2023/01/31 04:43:26;;;;;;;3.20;1.35;;;3.80;99.90;;;;;;4897116;29;20036;-66
2023/01/31 04:45:52;;;;;;;3.17;1.13;;;3.80;99.90;;;;;;4895032;29;20097;-66
2023/01/31 04:48:18;;;;;;;2.47;0.60;;;3.80;99.90;;;;;;4893217;29;20052;-66
2023/01/31 04:50:43;;;;;;;2.92;0.80;;;3.80;99.90;;;;;;4886373;29;20466;-65
2023/01/31 04:53:09;;;;;;;4.88;0.98;;;3.70;99.90;;;;;;4892987;29;20484;-66
2023/01/31 04:55:35;;;;;;;4.15;0.80;;;3.70;99.90;;;;;;4912969;29;20485;-66
2023/01/31 04:58:01;;;;;;;3.08;0.90;;;3.70;99.90;;;;;;4879380;29;20064;-66
2023/01/31 05:00:27;;;;;;;3.45;0.98;;;3.60;99.90;;;;;;4874992;29;20375;-66
2023/01/31 05:02:53;;;;;;;1.65;0.57;;;3.60;99.90;;;;;;4880510;29;20029;-65
2023/01/31 05:05:19;;;;;;;3.90;0.55;;;3.50;99.90;;;;;;4881508;29;20037;-65
2023/01/31 05:07:45;;;;;;;2.35;0.68;;;3.50;99.90;;;;;;4883071;29;20032;-66
2023/01/31 05:10:11;;;;;;;0.52;0.28;;;3.50;99.90;;;;;;4880095;29;20390;-66
2023/01/31 05:12:37;;;;;;;2.63;0.32;;;3.60;99.90;;;;;;4879047;29;20037;-66
2023/01/31 05:15:06;;;;;;;2.20;0.60;;;3.60;99.90;;;;;;4878233;29;20044;-66
2023/01/31 05:17:31;;;;;;;1.27;0.60;;;3.70;99.90;;;;;;4875965;29;20048;-65
2023/01/31 05:19:58;;;;;;;1.52;0.30;;;3.80;99.90;;;;;;4882519;29;20041;-66
2023/01/31 05:22:24;;;;;;;0.57;0.20;;;3.90;99.90;;;;;;4876553;29;20044;-66
2023/01/31 05:24:50;;;;;;;2.05;0.50;;;3.90;99.90;;;;;;4844743;29;20083;-66
2023/01/31 05:27:17;;;;;;;1.10;0.47;;;3.80;99.90;;;;;;4880605;29;20499;-66
2023/01/31 05:29:42;;;;;;;3.58;0.47;;;3.90;99.90;;;;;;4878953;29;20032;-66
2023/01/31 05:32:08;;;;;;;2.28;0.30;;;3.90;99.90;;;;;;4872446;29;20041;-71
2023/01/31 05:34:34;;;;;;;2.22;0.52;;;4.00;99.90;;;;;;4871688;29;20045;-65
2023/01/31 05:37:00;;;;;;;0.82;0.45;;;4.00;99.90;;;;;;4868008;29;20040;-65
2023/01/31 05:39:27;;;;;;;1.02;0.38;;;3.90;99.90;;;;;;4879023;29;20749;-66
2023/01/31 05:41:53;;;;;;;1.17;0.47;;;3.90;99.90;;;;;;4864430;29;20041;-66
2023/01/31 05:44:19;;;;;;;1.88;0.57;;;3.90;99.90;;;;;;4878602;29;20506;-66
2023/01/31 05:46:45;;;;;;;1.88;0.60;;;4.00;99.90;;;;;;4863838;29;20201;-65
2023/01/31 05:49:11;;;;;;;1.83;0.70;;;3.90;99.90;;;;;;4877050;29;20081;-65
2023/01/31 05:51:37;;;;;;;2.63;0.77;;;4.00;99.90;;;;;;4870843;29;20039;-70
2023/01/31 05:54:03;;;;;;;2.10;0.60;;;4.00;99.90;;;;;;4879459;29;20207;-70
2023/01/31 05:56:28;;;;;;;2.67;0.73;;;3.90;99.90;;;;;;4879623;29;20100;-71
2023/01/31 05:58:54;;;;;;;1.98;0.50;;;3.90;99.90;;;;;;4893734;29;20091;-71
2023/01/31 06:01:24;;;;;;;2.13;0.60;;;3.90;99.90;;;;;;4897024;29;20474;-71
2023/01/31 06:03:50;;;;;;;1.75;0.60;;;3.90;99.90;;;;;;4898364;29;20062;-71
2023/01/31 06:06:15;;;;;;;15.85;10.52;;;3.90;99.90;;;;;;4902404;29;20610;-71
2023/01/31 06:08:41;;;;;;;3.22;1.15;;;3.90;99.90;;;;;;4902641;29;20051;-73
2023/01/31 06:11:09;;;;;;;2.70;0.50;;;4.00;99.90;;;;;;4896756;29;20039;-73
2023/01/31 06:13:36;;;;;;;2.38;0.60;;;4.00;99.90;;;;;;4900135;29;20055;-74
2023/01/31 06:16:02;;;;;;;4.10;0.60;;;3.90;99.90;;;;;;4893698;29;20032;-74
2023/01/31 06:18:28;;;;;;;1.25;0.50;;;4.00;99.90;;;;;;4898620;29;20060;-71
2023/01/31 06:20:54;;;;;;;2.40;0.60;;;3.90;99.90;;;;;;4899606;29;20587;-72
2023/01/31 06:23:20;;;;;;;5.05;0.73;;;3.90;99.90;;;;;;4904253;29;20040;-75
2023/01/31 06:25:54;;;;;;;3.33;1.83;;;4.00;99.90;;;;;;4891150;29;20181;-73
2023/01/31 06:28:19;;;;;;;4.68;1.88;;;4.00;99.90;;;;;;4883399;29;20044;-70
2023/01/31 06:30:45;;;;;;;25.65;16.42;;;3.90;99.90;;;;;;4888674;29;20184;-68
2023/01/31 06:33:11;;;;;;;6.25;4.40;;;4.00;99.90;;;;;;4879840;29;20036;-67
2023/01/31 06:35:37;;;;;;;6.85;3.45;;;4.10;99.90;;;;;;4891909;29;20072;-67
2023/01/31 06:38:04;;;;;;;2.20;0.60;;;4.10;99.90;;;;;;4888102;29;20040;-68
2023/01/31 06:40:30;;;;;;;3.75;0.73;;;4.00;99.90;;;;;;4892102;29;20780;-67
2023/01/31 06:42:56;;;;;;;1.65;0.70;;;4.00;99.90;;;;;;4891043;29;20493;-67
2023/01/31 06:45:22;;;;;;;2.30;0.65;;;4.00;99.90;;;;;;4885463;29;20453;-68
2023/01/31 06:47:48;;;;;;;2.97;0.90;;;4.00;99.90;;;;;;4896788;29;20032;-70
2023/01/31 06:50:13;;;;;;;2.28;0.50;;;4.10;99.90;;;;;;4902157;29;20040;-70
2023/01/31 06:52:40;;;;;;;6.57;0.90;;;4.10;99.90;;;;;;4901339;29;20437;-70
2023/01/31 06:55:06;;;;;;;2.92;0.65;;;4.00;99.90;;;;;;4905394;29;20063;-71
2023/01/31 06:57:32;;;;;;;1.80;0.70;;;4.00;99.90;;;;;;4900136;29;20052;-71
2023/01/31 06:59:58;;;;;;;2.60;0.70;;;4.00;99.90;;;;;;4897654;29;20073;-71
2023/01/31 07:02:24;;;;;;;2.05;0.60;;;4.10;99.90;;;;;;4893219;29;20044;-71
2023/01/31 07:04:50;;;;;;;1.40;0.38;;;4.00;99.90;;;;;;4894114;29;20048;-71
2023/01/31 07:07:16;;;;;;;2.65;0.70;;;4.00;99.90;;;;;;4912425;29;20070;-68
2023/01/31 07:09:41;;;;;;;1.70;0.68;;;4.10;99.90;;;;;;4897303;29;20071;-67
2023/01/31 07:12:07;;;;;;;5.35;1.30;;;4.20;99.90;;;;;;4901409;29;20048;-67
2023/01/31 07:14:33;;;;;;;2.53;0.60;;;4.20;99.90;;;;;;4898639;29;20044;-67
2023/01/31 07:16:58;;;;;;;3.13;0.77;;;4.20;99.90;;;;;;4898031;29;20037;-67
2023/01/31 07:19:24;;;;;;;4.00;1.00;;;4.30;99.90;;;;;;4898534;29;20661;-67
2023/01/31 07:21:50;;;;;;;4.63;0.90;;;4.40;99.90;;;;;;4898415;29;20067;-67
2023/01/31 07:24:15;;;;;;;4.78;1.15;;;4.40;99.90;;;;;;4900988;29;20047;-67
2023/01/31 07:26:41;;;;;;;2.42;0.90;;;4.40;99.90;;;;;;4903333;29;20123;-69
2023/01/31 07:29:07;;;;;;;4.13;0.95;;;4.50;99.90;;;;;;4896522;29;20047;-69
2023/01/31 07:31:33;;;;;;;4.53;1.27;;;4.50;99.90;;;;;;4890946;29;20092;-70
2023/01/31 07:33:59;;;;;;;4.13;0.80;;;4.60;99.90;;;;;;4886907;29;20505;-70
2023/01/31 07:36:25;;;;;;;4.80;0.68;;;4.70;99.90;;;;;;4902086;29;20072;-69
2023/01/31 07:38:55;;;;;;;3.28;0.80;;;4.70;99.90;;;;;;4904383;29;20511;-69
2023/01/31 07:41:25;;;;;;;2.75;0.60;;;4.80;99.90;;;;;;4901528;29;20241;-70
2023/01/31 07:43:51;;;;;;;4.25;0.55;;;4.90;99.90;;;;;;4900384;29;20044;-67
2023/01/31 07:46:18;;;;;;;5.70;1.27;;;4.70;99.90;;;;;;4896130;29;20036;-69
2023/01/31 07:48:43;;;;;;;2.60;0.80;;;4.70;99.90;;;;;;4902539;29;20045;-70
2023/01/31 07:51:10;;;;;;;2.17;0.63;;;4.70;99.90;;;;;;4897310;29;20105;-71
2023/01/31 07:53:41;;;;;;;2.90;0.80;;;4.70;99.90;;;;;;4903251;29;20040;-70
2023/01/31 07:56:12;;;;;;;3.78;0.70;;;4.80;99.90;;;;;;4902566;29;20051;-72
2023/01/31 07:58:40;;;;;;;2.60;0.50;;;4.90;99.90;;;;;;4900341;29;20108;-70
2023/01/31 08:03:51;;;;;;;4.55;0.85;;;4.90;99.90;;;;;;4888678;29;20435;-67
2023/01/31 08:06:17;;;;;;;3.25;0.60;;;4.90;99.90;;;;;;4894804;29;20130;-67
2023/01/31 08:08:44;;;;;;;3.05;0.60;;;5.10;99.90;;;;;;4896034;29;20047;-67
2023/01/31 08:11:10;;;;;;;3.13;1.00;;;5.20;99.90;;;;;;4898779;29;20036;-68
2023/01/31 08:13:37;;;;;;;3.13;0.70;;;5.40;99.90;;;;;;4900521;29;20466;-67
2023/01/31 08:16:04;;;;;;;6.72;0.90;;;5.40;99.90;;;;;;4898027;29;20040;-67
2023/01/31 08:18:30;;;;;;;3.88;0.90;;;5.30;99.90;;;;;;4886903;29;20220;-67
2023/01/31 08:20:57;;;;;;;2.15;0.88;;;5.30;99.90;;;;;;4884458;29;20052;-68
2023/01/31 08:23:22;;;;;;;3.85;0.70;;;5.20;99.90;;;;;;4883054;29;20041;-67
2023/01/31 08:25:49;;;;;;;3.47;0.70;;;5.10;99.90;;;;;;4890274;29;20546;-67
2023/01/31 08:28:15;;;;;;;6.70;0.80;;;5.00;99.90;;;;;;4896376;29;20024;-68
2023/01/31 08:30:44;;;;;;;2.00;0.55;;;5.00;99.90;;;;;;4893697;29;20153;-68
2023/01/31 08:33:10;;;;;;;2.63;1.00;;;4.90;99.90;;;;;;4893931;29;20041;-68
2023/01/31 08:35:36;;;;;;;2.63;0.70;;;5.00;99.90;;;;;;4897535;29;20488;-68
2023/01/31 08:38:03;;;;;;;4.13;0.85;;;5.00;99.90;;;;;;4895245;29;20048;-68
2023/01/31 08:40:28;;;;;;;3.25;0.65;;;5.00;99.90;;;;;;4888445;29;21039;-67
2023/01/31 08:42:55;;;;;;;4.82;0.88;;;5.00;99.90;;;;;;4899334;29;20036;-67
2023/01/31 08:45:21;;;;;;;2.40;0.60;;;4.90;99.90;;;;;;4898676;29;20048;-68
2023/01/31 08:47:47;;;;;;;4.00;0.55;;;4.90;99.90;;;;;;4900314;29;20051;-68
2023/01/31 08:50:12;;;;;;;3.38;0.55;;;4.80;99.90;;;;;;4904252;29;20382;-67
2023/01/31 08:52:38;;;;;;;3.25;1.13;;;4.80;99.90;;;;;;4897237;29;20059;-68
2023/01/31 08:55:05;;;;;;;5.82;1.05;;;4.90;99.90;;;;;;4892619;29;20043;-67
2023/01/31 08:57:31;;;;;;;1.13;0.60;;;5.10;99.90;;;;;;4883878;29;20052;-67
2023/01/31 08:59:56;;;;;;;4.90;0.90;;;5.30;99.90;;;;;;4894147;29;20072;-67
2023/01/31 09:02:22;;;;;;;4.93;1.10;;;5.30;99.90;;;;;;4895808;29;20044;-71
2023/01/31 09:04:48;;;;;;;3.03;0.73;;;5.30;99.90;;;;;;4886834;29;20545;-71
2023/01/31 09:07:14;;;;;;;7.13;1.08;;;5.40;99.90;;;;;;4882607;29;20066;-70
2023/01/31 09:09:40;;;;;;;2.17;0.80;;;5.60;99.90;;;;;;4875507;29;20581;-71
2023/01/31 09:12:05;;;;;;;5.07;0.80;;;5.40;99.90;;;;;;4886408;29;20058;-71
2023/01/31 09:14:31;;;;;;;3.67;1.17;;;5.50;99.90;;;;;;4881837;29;20058;-69
2023/01/31 09:16:57;;;;;;;4.22;0.80;;;5.60;99.90;;;;;;4887637;29;20054;-69
2023/01/31 09:19:22;;;;;;;2.25;0.73;;;5.70;99.90;;;;;;4893521;29;20063;-69
2023/01/31 09:21:48;;;;;;;2.80;0.65;;;5.70;99.90;;;;;;4891244;29;20063;-69
2023/01/31 09:24:14;;;;;;;2.38;1.00;;;5.90;99.90;;;;;;4887211;29;20036;-70
2023/01/31 09:26:39;;;;;;;6.43;0.90;;;5.90;99.90;;;;;;4898808;29;20671;-69
2023/01/31 09:29:05;;;;;;;4.85;0.80;;;5.90;99.90;;;;;;4866885;29;20044;-68
2023/01/31 09:31:32;;;;;;;2.20;0.60;;;5.70;99.90;;;;;;4892585;29;20050;-70
2023/01/31 09:33:57;;;;;;;3.85;0.85;;;5.70;99.90;;;;;;4886393;29;20221;-71
2023/01/31 09:36:24;;;;;;;2.22;0.60;;;5.90;99.90;;;;;;4882435;29;20032;-73
2023/01/31 09:38:56;;;;;;;2.03;0.70;;;5.90;99.90;;;;;;4898935;29;20044;-71
2023/01/31 09:41:56;;;;;;;2.80;0.52;;;5.70;99.90;;;;;;4895484;29;20039;-68
2023/01/31 09:44:31;;;;;;;6.15;0.73;;;5.80;99.90;;;;;;4893089;29;20060;-67
2023/01/31 09:47:17;;;;;;;2.20;0.47;;;5.90;99.90;;;;;;4881280;29;20696;-68
2023/01/31 09:49:51;;;;;;;3.22;1.02;;;5.90;99.90;;;;;;4893651;29;20048;-68
2023/01/31 09:52:17;;;;;;;2.42;0.93;;;5.80;99.90;;;;;;4890710;29;20132;-67
2023/01/31 09:54:44;;;;;;;2.33;0.50;;;5.70;99.90;;;;;;4888830;29;21391;-68
2023/01/31 09:57:22;;;;;;;4.35;0.90;;;5.70;99.90;;;;;;4885998;29;20066;-68
2023/01/31 09:59:49;;;;;;;3.03;0.75;;;5.70;99.90;;;;;;4900728;29;20044;-68
2023/01/31 10:02:26;;;;;;;2.65;0.80;;;5.60;99.90;;;;;;4897184;29;20148;-68
2023/01/31 10:05:36;;;;;;;2.65;0.63;;;5.40;99.90;;;;;;4893658;29;20298;-68
2023/01/31 10:08:12;;;;;;;2.72;0.77;;;5.40;99.90;;;;;;4898323;29;20032;-68
2023/01/31 10:10:44;;;;;;;5.00;1.25;;;5.30;99.90;;;;;;4883120;29;20085;-68
2023/01/31 10:13:35;;;;;;;3.53;0.77;;;5.40;99.90;;;;;;4890917;29;20043;-69
2023/01/31 10:16:18;;;;;;;3.90;0.88;;;5.50;99.90;;;;;;4894453;29;20142;-68
2023/01/31 10:18:52;;;;;;;3.63;0.80;;;5.40;99.90;;;;;;4894215;29;20033;-68
2023/01/31 10:21:23;;;;;;;3.30;0.82;;;5.50;99.90;;;;;;4895271;29;20041;-69
2023/01/31 10:23:55;;;;;;;2.47;0.60;;;5.40;99.90;;;;;;4892121;29;20036;-68
2023/01/31 10:26:35;;;;;;;4.18;0.90;;;5.30;99.90;;;;;;4895721;29;20512;-68
2023/01/31 10:29:27;;;;;;;3.53;0.80;;;5.30;99.90;;;;;;4897200;29;21526;-69
2023/01/31 10:31:59;;;;;;;;;;;5.40;99.90;;;;;;4893814;29;20044;-69
2023/01/31 10:34:37;;;;;;;3.88;0.80;;;5.40;99.90;;;;;;4900133;29;20040;-68
2023/01/31 10:37:24;;;;;;;3.40;0.80;;;5.30;99.90;;;;;;4894362;29;20100;-68
2023/01/31 10:39:57;;;;;;;3.08;0.77;;;5.30;99.90;;;;;;4886203;29;20426;-66
2023/01/31 10:42:31;;;;;;;4.65;1.13;;;5.40;99.90;;;;;;4893736;29;20028;-66
2023/01/31 10:45:09;;;;;;;7.25;2.80;;;5.40;99.90;;;;;;4908529;29;20052;-66
2023/01/31 10:48:04;;;;;;;4.40;1.13;;;5.50;99.90;;;;;;4893702;29;20138;-66
2023/01/31 10:50:54;;;;;;;2.65;0.50;;;5.50;99.90;;;;;;4881608;29;20040;-67
2023/01/31 10:53:45;;;;;;;15.35;10.80;;;5.50;99.90;;;;;;4892873;29;20043;-66
2023/01/31 10:56:22;;;;;;;5.13;2.67;;;5.60;99.90;;;;;;4890773;29;20105;-66
2023/01/31 10:58:48;;;;;;;12.20;6.35;;;5.70;99.90;;;;;;4896216;29;20086;-69
2023/01/31 11:01:14;;;;;;;9.98;5.65;;;5.80;99.90;;;;;;4900598;29;20037;-70
2023/01/31 11:03:49;;;;;;;20.33;13.45;;;6.00;99.90;;;;;;4902289;29;20050;-70
2023/01/31 11:06:16;;;;;;;7.57;2.80;;;6.10;99.90;;;;;;4897898;29;20096;-70
2023/01/31 11:08:47;;;;;;;8.65;3.72;;;6.10;99.90;;;;;;4875671;29;20561;-70
2023/01/31 11:11:17;;;;;;;3.80;1.33;;;6.10;99.90;;;;;;4888540;29;21701;-70
2023/01/31 11:13:56;;;;;;;5.65;1.50;;;6.00;99.90;;;;;;4897313;29;20084;-70
2023/01/31 11:16:23;;;;;;;2.92;1.30;;;6.00;99.90;;;;;;4893677;29;20700;-70
2023/01/31 11:18:50;;;;;;;3.20;1.70;;;5.90;99.90;;;;;;4896474;29;20080;-69
2023/01/31 11:21:34;;;;;;;3.67;1.13;;;5.70;99.90;;;;;;4894358;29;20055;-70
2023/01/31 11:24:05;;;;;;;3.28;0.68;;;5.70;99.90;;;;;;4898168;29;20533;-70
2023/01/31 11:26:37;;;;;;;4.13;1.55;;;5.60;99.90;;;;;;4901885;29;20047;-69
2023/01/31 11:29:17;;;;;;;4.50;1.30;;;5.60;99.90;;;;;;4899650;29;20367;-70
2023/01/31 11:31:46;;;;;;;2.90;1.00;;;5.50;99.90;;;;;;4895661;29;20463;-70
2023/01/31 11:34:26;;;;;;;5.20;1.42;;;5.50;99.90;;;;;;4899969;29;20112;-69
2023/01/31 11:36:52;;;;;;;3.38;1.77;;;5.60;99.90;;;;;;4887904;29;20020;-69
2023/01/31 11:39:37;;;;;;;2.78;0.90;;;5.70;99.90;;;;;;4896109;29;20140;-70
2023/01/31 11:42:16;;;;;;;5.05;1.15;;;5.70;99.90;;;;;;4901297;29;20068;-69
2023/01/31 11:44:56;;;;;;;2.00;1.15;;;5.60;99.90;;;;;;4899307;29;20060;-70
2023/01/31 11:47:41;;;;;;;4.53;1.08;;;5.60;99.90;;;;;;4903376;29;20049;-69
2023/01/31 11:50:17;;;;;;;2.33;0.85;;;5.70;99.90;;;;;;4896560;29;20024;-69
2023/01/31 11:52:43;;;;;;;2.72;0.73;;;5.70;99.90;;;;;;4867865;29;20039;-66
2023/01/31 11:55:15;;;;;;;2.45;1.38;;;5.70;99.90;;;;;;4892882;29;20051;-69
2023/01/31 11:57:40;;;;;;;;;;;5.70;99.90;;;;;;4890965;29;20052;-69
2023/01/31 12:00:27;;;;;;;2.80;0.70;;;5.80;99.90;;;;;;4885854;29;19925;-70
2023/01/31 12:03:06;;;;;;;3.25;0.82;;;5.60;99.90;;;;;;4899655;29;20063;-69
2023/01/31 12:05:44;;;;;;;0.98;0.70;;;5.40;99.90;;;;;;4902431;29;20044;-68
2023/01/31 12:08:38;;;;;;;2.08;0.40;;;5.30;99.90;;;;;;4890945;29;20076;-69
2023/01/31 12:11:19;;;;;;;1.73;0.60;;;5.20;99.90;;;;;;4898643;29;20041;-69
2023/01/31 12:13:50;;;;;;;2.97;0.73;;;5.20;99.90;;;;;;4899290;29;20131;-69
2023/01/31 12:16:21;;;;;;;4.40;0.75;;;5.30;99.90;;;;;;4894796;29;20028;-69
2023/01/31 12:18:50;;;;;;;5.68;1.15;;;5.40;99.90;;;;;;4896599;29;20036;-69
2023/01/31 12:21:41;;;;;;;2.05;0.60;;;5.50;99.90;;;;;;4895674;29;20441;-69
2023/01/31 12:24:06;;;;;;;3.00;1.00;;;5.50;99.90;;;;;;4891408;29;20499;-69
2023/01/31 12:27:00;;;;;;;2.90;1.20;;;5.50;99.90;;;;;;4895469;29;20054;-69
2023/01/31 12:29:43;;;;;;;1.88;0.90;;;5.50;99.90;;;;;;4878332;29;20704;-69
2023/01/31 12:32:30;;;;;;;2.78;1.05;;;5.50;99.90;;;;;;4899927;29;20044;-69
2023/01/31 12:34:59;;;;;;;5.05;0.98;;;5.40;99.90;;;;;;4899661;29;20056;-69
2023/01/31 12:37:43;;;;;;;4.22;0.75;;;5.50;99.90;;;;;;4905837;29;20127;-69
2023/01/31 12:40:25;;;;;;;2.70;0.65;;;5.60;99.90;;;;;;4904040;29;20036;-69
2023/01/31 12:43:02;;;;;;;4.13;0.57;;;5.80;99.90;;;;;;4903389;29;20532;-69
2023/01/31 12:45:52;;;;;;;1.13;0.65;;;5.90;99.90;;;;;;4899567;29;20070;-69
2023/01/31 12:49:03;;;;;;;6.25;5.07;;;5.90;99.90;;;;;;4900824;29;20119;-69
2023/01/31 12:51:37;;;;;;;2.15;0.60;;;6.00;99.90;;;;;;4866818;29;20103;-69
2023/01/31 12:54:37;;;;;;;1.13;0.52;;;6.00;99.90;;;;;;4900100;29;20056;-70
2023/01/31 12:57:34;;;;;;;3.15;0.70;;;6.00;99.90;;;;;;4902260;29;20066;-69
2023/01/31 13:00:17;;;;;;;1.75;0.65;;;5.90;99.90;;;;;;4893850;29;20041;-70
2023/01/31 13:03:08;;;;;;;1.80;0.70;;;5.80;99.90;;;;;;4886185;29;20171;-70
2023/01/31 13:06:00;;;;;;;4.03;0.70;;;5.80;99.90;;;;;;4890147;29;20044;-69
2023/01/31 13:08:28;;;;;;;2.13;0.60;;;5.80;99.90;;;;;;4890981;29;20044;-70
2023/01/31 13:11:10;;;;;;;1.75;0.60;;;5.80;99.90;;;;;;4888646;29;20599;-70
2023/01/31 13:14:08;;;;;;;3.30;1.02;;;5.70;99.90;;;;;;4884439;29;20055;-70
2023/01/31 13:16:41;;;;;;;1.17;0.50;;;5.80;99.90;;;;;;4891330;29;20049;-69
2023/01/31 13:19:35;;;;;;;4.05;0.77;;;5.80;99.90;;;;;;4889340;29;20040;-69
2023/01/31 13:22:06;;;;;;;1.70;0.63;;;5.80;99.90;;;;;;4891480;29;20048;-69
2023/01/31 13:24:37;;;;;;;3.20;0.88;;;5.80;99.90;;;;;;4884869;29;20127;-69
2023/01/31 13:27:17;;;;;;;3.45;1.05;;;5.80;99.90;;;;;;4887271;29;20426;-69
2023/01/31 13:29:58;;;;;;;1.48;0.65;;;6.00;99.90;;;;;;4892353;29;20135;-70
2023/01/31 13:32:41;;;;;;;4.90;2.42;;;6.10;99.90;;;;;;4893652;29;20059;-69